createdAt,value
2019-02-27T00:01:00.397Z,102188.20
2019-02-27T00:02:03.933Z,102187.08
2019-02-27T00:03:07.646Z,102190.95
2019-02-27T00:04:11.286Z,102187.38
2019-02-27T00:05:15.021Z,102191.77
2019-02-27T00:06:18.594Z,102187.38
2019-02-27T00:07:22.311Z,102179.41
2019-02-27T00:08:26.924Z,102182.16
2019-02-27T00:09:32.901Z,102187.66
2019-02-27T00:10:36.872Z,102179.41
2019-02-27T00:11:45.948Z,102177.76
2019-02-27T00:12:46.737Z,102176.67
2019-02-27T00:13:50.378Z,102175.85
2019-02-27T00:14:53.938Z,102175.00
2019-02-27T00:15:57.470Z,102183.00
2019-02-27T00:17:00.974Z,102174.73
2019-02-27T00:18:04.548Z,102175.30
2019-02-27T00:19:08.283Z,102176.38
2019-02-27T00:20:12.025Z,102173.92
2019-02-27T00:21:17.576Z,102174.73
2019-02-27T00:22:20.873Z,102171.98
2019-02-27T00:23:24.674Z,102166.48
2019-02-27T00:24:29.941Z,102169.78
2019-02-27T00:25:35.915Z,102162.08
2019-02-27T00:26:39.525Z,102157.69
2019-02-27T00:27:48.729Z,102163.45
2019-02-27T00:28:49.241Z,102162.64
2019-02-27T00:29:52.771Z,102160.17
2019-02-27T00:30:56.335Z,102163.19
2019-02-27T00:31:59.907Z,102163.75
2019-02-27T00:33:03.612Z,102161.55
2019-02-27T00:34:07.131Z,102161.81
2019-02-27T00:35:10.804Z,102154.93
2019-02-27T00:36:14.299Z,102153.55
2019-02-27T00:37:19.066Z,102152.44
2019-02-27T00:38:25.178Z,102150.24
2019-02-27T00:39:30.843Z,102145.84
2019-02-27T00:40:38.627Z,102155.20
2019-02-27T00:41:38.951Z,102150.51
2019-02-27T00:42:42.457Z,102145.56
2019-02-27T00:43:46.028Z,102142.54
2019-02-27T00:44:49.561Z,102148.31
2019-02-27T00:45:53.064Z,102143.38
2019-02-27T00:46:56.557Z,102139.78
2019-02-27T00:48:00.128Z,102139.78
2019-02-27T00:49:03.772Z,102141.72
2019-02-27T00:50:10.410Z,102139.52
2019-02-27T00:51:13.910Z,102132.64
2019-02-27T00:52:18.334Z,102139.26
2019-02-27T00:53:24.550Z,102137.31
2019-02-27T00:54:29.002Z,102138.70
2019-02-27T00:55:32.821Z,102134.56
2019-02-27T00:56:36.386Z,102137.61
2019-02-27T00:57:39.882Z,102136.50
2019-02-27T00:58:43.407Z,102137.31
2019-02-27T00:59:46.929Z,102139.52
2019-02-27T01:00:50.523Z,102135.38
2019-02-27T01:01:54.016Z,102139.81
2019-02-27T01:02:57.592Z,102136.23
2019-02-27T01:04:02.415Z,102137.61
2019-02-27T01:05:09.137Z,102135.94
2019-02-27T01:06:14.678Z,102141.45
2019-02-27T01:07:20.678Z,102128.23
2019-02-27T01:08:25.130Z,102134.56
2019-02-27T01:09:28.733Z,102131.84
2019-02-27T01:10:32.316Z,102129.05
2019-02-27T01:11:35.817Z,102140.62
2019-02-27T01:12:39.382Z,102129.61
2019-02-27T01:13:42.892Z,102136.23
2019-02-27T01:14:46.471Z,102129.88
2019-02-27T01:15:49.971Z,102138.14
2019-02-27T01:16:53.454Z,102133.19
2019-02-27T01:17:57.461Z,102131.81
2019-02-27T01:19:02.218Z,102128.53
2019-02-27T01:20:12.792Z,102130.43
2019-02-27T01:21:19.097Z,102127.41
2019-02-27T01:22:21.537Z,102131.55
2019-02-27T01:23:25.059Z,102125.48
2019-02-27T01:24:28.543Z,102128.79
2019-02-27T01:25:32.114Z,102119.42
2019-02-27T01:26:35.652Z,102124.66
2019-02-27T01:27:39.133Z,102121.64
2019-02-27T01:28:45.480Z,102119.16
2019-02-27T01:29:50.749Z,102119.16
2019-02-27T01:30:53.063Z,102114.20
2019-02-27T01:31:57.604Z,102117.52
2019-02-27T01:33:04.010Z,102116.14
2019-02-27T01:34:11.186Z,102115.61
2019-02-27T01:35:17.826Z,102116.14
2019-02-27T01:36:18.378Z,102114.23
2019-02-27T01:37:21.916Z,102112.86
2019-02-27T01:38:25.419Z,102109.84
2019-02-27T01:39:28.970Z,102111.21
2019-02-27T01:40:32.562Z,102112.03
2019-02-27T01:41:36.045Z,102107.08
2019-02-27T01:42:39.641Z,102107.64
2019-02-27T01:43:43.209Z,102101.02
2019-02-27T01:44:47.235Z,102101.31
2019-02-27T01:45:51.892Z,102101.84
2019-02-27T01:46:56.081Z,102100.75
2019-02-27T01:47:59.580Z,102095.80
2019-02-27T01:49:03.161Z,102097.18
2019-02-27T01:50:27.270Z,102095.54
2019-02-27T01:51:30.768Z,102090.85
2019-02-27T01:52:34.641Z,102096.66
2019-02-27T01:53:40.466Z,102090.59
2019-02-27T01:54:43.450Z,102087.02
2019-02-27T01:55:46.960Z,102091.73
2019-02-27T01:56:50.516Z,102092.26
2019-02-27T01:57:54.033Z,102090.62
2019-02-27T01:58:57.533Z,102090.62
2019-02-27T02:00:01.012Z,102085.11
2019-02-27T02:01:05.571Z,102083.73
2019-02-27T02:02:09.060Z,102086.48
2019-02-27T02:03:13.749Z,102082.64
2019-02-27T02:04:20.314Z,102087.59
2019-02-27T02:05:26.146Z,102082.38
2019-02-27T02:06:32.001Z,102085.70
2019-02-27T02:07:33.907Z,102081.00
2019-02-27T02:08:37.384Z,102079.62
2019-02-27T02:09:41.005Z,102084.31
2019-02-27T02:10:44.567Z,102072.48
2019-02-27T02:11:48.093Z,102073.86
2019-02-27T02:13:01.182Z,102067.23
2019-02-27T02:14:13.480Z,102063.38
2019-02-27T02:15:27.278Z,102063.38
2019-02-27T02:16:39.946Z,102061.73
2019-02-27T02:18:04.200Z,102052.97
2019-02-27T02:19:37.788Z,102050.19
2019-02-27T02:20:47.012Z,102047.44
2019-02-27T02:21:59.383Z,102054.06
2019-02-27T02:23:14.133Z,102048.00
2019-02-27T02:24:45.708Z,102046.06
2019-02-27T02:25:52.270Z,102042.23
2019-02-27T02:27:21.158Z,102040.03
2019-02-27T02:28:42.396Z,102039.47
2019-02-27T02:30:08.414Z,102034.27
2019-02-27T02:31:20.816Z,102032.63
2019-02-27T02:32:30.350Z,102032.63
2019-02-27T02:33:45.632Z,102037.30
2019-02-27T02:35:14.816Z,102030.42
2019-02-27T02:36:26.429Z,102033.73
2019-02-27T02:37:37.818Z,102030.98
2019-02-27T02:38:44.344Z,102026.85
2019-02-27T02:39:56.482Z,102030.42
2019-02-27T02:41:08.397Z,102022.72
2019-02-27T02:42:38.229Z,102026.85
2019-02-27T02:43:50.549Z,102028.75
2019-02-27T02:45:08.963Z,102021.05
2019-02-27T02:46:20.682Z,102022.13
2019-02-27T02:47:27.233Z,102021.58
2019-02-27T02:48:53.119Z,102021.02
2019-02-27T02:50:20.075Z,102015.52
2019-02-27T02:51:32.548Z,102018.27
2019-02-27T02:53:13.198Z,102013.58
2019-02-27T02:54:52.677Z,102008.63
2019-02-27T02:55:59.238Z,102011.39
2019-02-27T02:57:05.757Z,102008.08
2019-02-27T02:58:18.402Z,102008.63
2019-02-27T02:59:30.739Z,102007.26
2019-02-27T03:00:45.989Z,102008.92
2019-02-27T03:01:55.259Z,102009.75
2019-02-27T03:03:10.581Z,102006.73
2019-02-27T03:04:31.809Z,102004.53
2019-02-27T03:05:38.376Z,102003.72
2019-02-27T03:06:47.421Z,101998.77
2019-02-27T03:07:59.798Z,101994.93
2019-02-27T03:09:21.272Z,102001.81
2019-02-27T03:10:33.012Z,101992.73
2019-02-27T03:11:59.093Z,101996.34
2019-02-27T03:13:23.473Z,101998.80
2019-02-27T03:14:41.632Z,101987.52
2019-02-27T03:16:04.010Z,101989.72
2019-02-27T03:17:20.081Z,101991.91
2019-02-27T03:18:45.952Z,101990.27
2019-02-27T03:19:52.473Z,101987.52
2019-02-27T03:21:01.701Z,101990.54
2019-02-27T03:22:20.308Z,101987.52
2019-02-27T03:23:52.210Z,101993.58
2019-02-27T03:25:10.772Z,101987.52
2019-02-27T03:26:22.956Z,101990.27
2019-02-27T03:27:32.407Z,101983.39
2019-02-27T03:28:55.020Z,101982.02
2019-02-27T03:30:04.629Z,101985.33
2019-02-27T03:31:19.296Z,101979.82
2019-02-27T03:32:40.837Z,101981.49
2019-02-27T03:33:51.751Z,101975.43
2019-02-27T03:35:29.156Z,101977.62
2019-02-27T03:36:55.837Z,101978.19
2019-02-27T03:38:02.387Z,101971.86
2019-02-27T03:39:17.650Z,101974.05
2019-02-27T03:40:51.440Z,101972.97
2019-02-27T03:41:59.345Z,101971.59
2019-02-27T03:43:14.901Z,101968.02
2019-02-27T03:44:24.253Z,101971.59
2019-02-27T03:45:31.720Z,101973.23
2019-02-27T03:46:50.369Z,101977.66
2019-02-27T03:48:05.335Z,101974.05
2019-02-27T03:49:23.751Z,101973.79
2019-02-27T03:50:39.216Z,101981.75
2019-02-27T03:52:00.648Z,101977.09
2019-02-27T03:53:20.774Z,101970.77
2019-02-27T03:54:39.260Z,101973.53
2019-02-27T03:56:08.580Z,101979.03
2019-02-27T03:57:25.027Z,101975.72
2019-02-27T03:58:40.511Z,101972.67
2019-02-27T03:59:47.052Z,101970.77
2019-02-27T04:01:02.272Z,101974.34
2019-02-27T04:02:23.791Z,101969.66
2019-02-27T04:03:46.678Z,101966.91
2019-02-27T04:04:53.232Z,101967.17
2019-02-27T04:06:08.619Z,101960.29
2019-02-27T04:07:38.978Z,101961.66
2019-02-27T04:08:56.688Z,101964.42
2019-02-27T04:10:00.306Z,101964.16
2019-02-27T04:11:05.848Z,101955.37
2019-02-27T04:12:09.198Z,101962.25
2019-02-27T04:13:12.757Z,101961.44
2019-02-27T04:14:28.245Z,101961.17
2019-02-27T04:15:31.793Z,101962.25
2019-02-27T04:16:37.870Z,101963.11
2019-02-27T04:17:39.454Z,101957.34
2019-02-27T04:18:43.184Z,101960.91
2019-02-27T04:19:46.759Z,101953.77
2019-02-27T04:20:51.031Z,101958.71
2019-02-27T04:22:00.630Z,101956.52
2019-02-27T04:22:59.974Z,101958.71
2019-02-27T04:24:03.482Z,101959.53
2019-02-27T04:25:08.513Z,101956.78
2019-02-27T04:26:11.982Z,101951.30
2019-02-27T04:27:19.984Z,101963.37
2019-02-27T04:28:20.773Z,101957.31
2019-02-27T04:29:24.270Z,101955.11
2019-02-27T04:30:27.765Z,101944.92
2019-02-27T04:31:31.329Z,101952.63
2019-02-27T04:32:34.960Z,101945.22
2019-02-27T04:33:38.476Z,101951.24
2019-02-27T04:34:41.982Z,101948.23
2019-02-27T04:35:45.531Z,101949.05
2019-02-27T04:36:49.069Z,101947.38
2019-02-27T04:37:54.379Z,101943.55
2019-02-27T04:39:00.018Z,101944.63
2019-02-27T04:40:03.095Z,101940.80
2019-02-27T04:41:06.591Z,101945.74
2019-02-27T04:42:10.061Z,101939.97
2019-02-27T04:43:13.562Z,101936.95
2019-02-27T04:44:17.078Z,101944.66
2019-02-27T04:45:20.589Z,101939.16
2019-02-27T04:46:24.077Z,101945.22
2019-02-27T04:47:29.234Z,101941.64
2019-02-27T04:48:32.762Z,101944.95
2019-02-27T04:49:37.853Z,101942.76
2019-02-27T04:50:43.981Z,101940.00
2019-02-27T04:51:48.081Z,101938.92
2019-02-27T04:52:52.073Z,101941.67
2019-02-27T04:53:55.641Z,101936.73
2019-02-27T04:54:59.182Z,101940.30
2019-02-27T04:56:02.680Z,101937.55
2019-02-27T04:57:06.176Z,101933.97
2019-02-27T04:58:09.739Z,101936.73
2019-02-27T04:59:18.291Z,101946.36
2019-02-27T05:00:18.535Z,101937.81
2019-02-27T05:01:22.047Z,101939.48
2019-02-27T05:02:25.546Z,101938.92
2019-02-27T05:03:29.053Z,101939.48
2019-02-27T05:04:35.231Z,101935.06
2019-02-27T05:05:39.145Z,101942.76
2019-02-27T05:06:46.879Z,101940.82
2019-02-27T05:07:48.238Z,101942.47
2019-02-27T05:08:51.728Z,101941.09
2019-02-27T05:09:55.234Z,101931.72
2019-02-27T05:10:58.773Z,101933.65
2019-02-27T05:12:02.279Z,101937.75
2019-02-27T05:13:05.993Z,101939.13
2019-02-27T05:14:09.550Z,101936.63
2019-02-27T05:15:14.663Z,101933.62
2019-02-27T05:16:18.175Z,101932.50
2019-02-27T05:17:22.058Z,101930.86
2019-02-27T05:18:29.309Z,101933.33
2019-02-27T05:19:30.846Z,101931.69
2019-02-27T05:20:34.351Z,101925.89
2019-02-27T05:21:37.871Z,101931.39
2019-02-27T05:22:41.365Z,101926.70
2019-02-27T05:23:44.851Z,101925.89
2019-02-27T05:24:48.365Z,101930.83
2019-02-27T05:25:51.872Z,101924.51
2019-02-27T05:26:55.379Z,101922.31
2019-02-27T05:28:01.261Z,101921.76
2019-02-27T05:29:04.332Z,101924.21
2019-02-27T05:30:12.874Z,101924.21
2019-02-27T05:31:19.032Z,101923.89
2019-02-27T05:32:21.632Z,101926.91
2019-02-27T05:33:25.175Z,101925.23
2019-02-27T05:34:28.646Z,101929.06
2019-02-27T05:35:32.147Z,101922.70
2019-02-27T05:36:35.905Z,101922.70
2019-02-27T05:37:39.479Z,101922.97
2019-02-27T05:38:43.638Z,101922.44
2019-02-27T05:39:50.668Z,101916.38
2019-02-27T05:40:52.837Z,101920.50
2019-02-27T05:41:56.397Z,101917.20
2019-02-27T05:42:59.940Z,101921.84
2019-02-27T05:44:03.531Z,101919.62
2019-02-27T05:45:10.370Z,101918.77
2019-02-27T05:46:15.122Z,101924.83
2019-02-27T05:47:18.763Z,101914.34
2019-02-27T05:48:22.253Z,101917.91
2019-02-27T05:49:27.385Z,101918.17
2019-02-27T05:50:34.007Z,101913.78
2019-02-27T05:51:39.245Z,101919.81
2019-02-27T05:52:43.035Z,101923.12
2019-02-27T05:53:46.693Z,101922.30
2019-02-27T05:54:50.268Z,101919.25
2019-02-27T05:55:58.482Z,101919.28
2019-02-27T05:57:00.335Z,101920.37
2019-02-27T05:58:03.950Z,101918.20
2019-02-27T05:59:07.706Z,101923.97
2019-02-27T06:00:19.521Z,101917.39
2019-02-27T06:01:23.297Z,101912.47
2019-02-27T06:02:27.126Z,101922.41
2019-02-27T06:03:30.682Z,101906.45
2019-02-27T06:04:34.563Z,101914.19
2019-02-27T06:05:38.226Z,101912.58
2019-02-27T06:06:44.947Z,101914.55
2019-02-27T06:07:47.056Z,101912.94
2019-02-27T06:08:50.665Z,101919.00
2019-02-27T06:09:54.211Z,101917.63
2019-02-27T06:10:57.825Z,101913.83
2019-02-27T06:12:06.644Z,101915.47
2019-02-27T06:13:06.920Z,101917.70
2019-02-27T06:14:10.453Z,101911.92
2019-02-27T06:15:16.027Z,101917.98
2019-02-27T06:16:19.658Z,101912.52
2019-02-27T06:17:23.347Z,101922.97
2019-02-27T06:18:26.936Z,101920.77
2019-02-27T06:19:33.481Z,101922.97
2019-02-27T06:20:35.682Z,101921.59
2019-02-27T06:21:39.191Z,101918.58
2019-02-27T06:22:42.809Z,101915.83
2019-02-27T06:23:46.321Z,101917.76
2019-02-27T06:24:49.858Z,101914.19
2019-02-27T06:25:59.139Z,101913.89
2019-02-27T06:26:58.668Z,101910.32
2019-02-27T06:28:02.309Z,101908.42
2019-02-27T06:29:05.869Z,101912.81
2019-02-27T06:30:14.657Z,101916.09
2019-02-27T06:31:18.165Z,101917.20
2019-02-27T06:32:21.720Z,101915.00
2019-02-27T06:33:25.463Z,101919.69
2019-02-27T06:34:28.963Z,101917.20
2019-02-27T06:35:34.215Z,101915.56
2019-02-27T06:36:42.015Z,101909.23
2019-02-27T06:37:43.173Z,101914.45
2019-02-27T06:38:46.677Z,101907.86
2019-02-27T06:39:50.173Z,101904.00
2019-02-27T06:40:53.836Z,101902.36
2019-02-27T06:41:57.352Z,101903.18
2019-02-27T06:43:00.906Z,101902.36
2019-02-27T06:44:04.536Z,101905.38
2019-02-27T06:45:12.679Z,101902.62
2019-02-27T06:46:19.677Z,101905.67
2019-02-27T06:47:21.356Z,101905.93
2019-02-27T06:48:24.845Z,101902.62
2019-02-27T06:49:28.351Z,101898.50
2019-02-27T06:50:31.929Z,101904.27
2019-02-27T06:51:35.746Z,101896.30
2019-02-27T06:52:42.073Z,101891.61
2019-02-27T06:53:45.251Z,101898.20
2019-02-27T06:54:51.925Z,101901.21
2019-02-27T06:55:54.092Z,101905.08
2019-02-27T06:56:57.665Z,101901.21
2019-02-27T06:58:01.153Z,101900.69
2019-02-27T06:59:04.790Z,101905.64
2019-02-27T07:00:11.585Z,101895.48
2019-02-27T07:01:15.081Z,101894.37
2019-02-27T07:02:19.072Z,101896.30
2019-02-27T07:03:23.839Z,101899.05
2019-02-27T07:04:27.342Z,101891.06
2019-02-27T07:05:30.921Z,101890.53
2019-02-27T07:06:34.419Z,101889.16
2019-02-27T07:07:38.012Z,101887.78
2019-02-27T07:08:41.516Z,101888.60
2019-02-27T07:09:45.843Z,101892.98
2019-02-27T07:10:50.075Z,101889.95
2019-02-27T07:11:53.594Z,101893.78
2019-02-27T07:12:57.136Z,101894.07
2019-02-27T07:14:00.894Z,101896.00
2019-02-27T07:15:06.746Z,101893.52
2019-02-27T07:16:10.327Z,101893.52
2019-02-27T07:17:13.835Z,101902.03
2019-02-27T07:18:17.342Z,101893.52
2019-02-27T07:19:20.837Z,101886.90
2019-02-27T07:20:25.322Z,101899.02
2019-02-27T07:21:32.572Z,101891.58
2019-02-27T07:22:34.167Z,101891.88
2019-02-27T07:23:37.752Z,101891.88
2019-02-27T07:24:41.362Z,101891.88
2019-02-27T07:25:44.931Z,101889.39
2019-02-27T07:26:50.246Z,101890.20
2019-02-27T07:27:53.759Z,101881.69
2019-02-27T07:28:57.284Z,101876.74
2019-02-27T07:30:00.786Z,101885.55
2019-02-27T07:31:04.351Z,101883.92
2019-02-27T07:32:07.862Z,101883.66
2019-02-27T07:33:11.359Z,101876.22
2019-02-27T07:34:14.996Z,101877.03
2019-02-27T07:35:18.633Z,101882.54
2019-02-27T07:36:22.128Z,101874.28
2019-02-27T07:37:25.617Z,101879.20
2019-02-27T07:38:29.114Z,101873.44
2019-02-27T07:39:33.337Z,101882.77
2019-02-27T07:40:36.914Z,101876.19
2019-02-27T07:41:40.431Z,101874.81
2019-02-27T07:42:43.916Z,101879.20
2019-02-27T07:43:47.546Z,101873.14
2019-02-27T07:44:51.125Z,101879.49
2019-02-27T07:45:54.892Z,101880.57
2019-02-27T07:46:58.383Z,101878.64
2019-02-27T07:48:01.880Z,101880.02
2019-02-27T07:49:05.460Z,101880.02
2019-02-27T07:50:12.051Z,101889.91
2019-02-27T07:51:17.391Z,101886.90
2019-02-27T07:52:20.909Z,101895.41
2019-02-27T07:53:25.651Z,101897.61
2019-02-27T07:54:29.684Z,101903.67
2019-02-27T07:55:33.224Z,101895.41
2019-02-27T07:56:36.763Z,101898.72
2019-02-27T07:57:40.344Z,101900.39
2019-02-27T07:58:43.943Z,101899.55
2019-02-27T07:59:47.509Z,101896.53
2019-02-27T08:00:51.109Z,101899.55
2019-02-27T08:01:54.635Z,101891.02
2019-02-27T08:02:58.202Z,101899.55
2019-02-27T08:04:01.707Z,101898.98
2019-02-27T08:05:08.443Z,101894.30
2019-02-27T08:06:11.970Z,101896.23
2019-02-27T08:07:15.498Z,101894.03
2019-02-27T08:08:23.290Z,101896.79
2019-02-27T08:09:24.405Z,101897.61
2019-02-27T08:10:28.035Z,101893.77
2019-02-27T08:11:31.568Z,101891.29
2019-02-27T08:12:35.087Z,101894.03
2019-02-27T08:13:38.585Z,101894.30
2019-02-27T08:14:42.079Z,101888.80
2019-02-27T08:15:45.563Z,101889.91
2019-02-27T08:16:49.108Z,101892.92
2019-02-27T08:17:57.652Z,101889.35
2019-02-27T08:18:57.954Z,101885.78
2019-02-27T08:20:01.453Z,101890.98
2019-02-27T08:21:05.009Z,101889.06
2019-02-27T08:22:08.666Z,101889.88
2019-02-27T08:23:12.169Z,101886.30
2019-02-27T08:24:15.691Z,101890.39
2019-02-27T08:25:19.636Z,101887.91
2019-02-27T08:26:23.190Z,101893.12
2019-02-27T08:27:26.843Z,101895.58
2019-02-27T08:28:30.375Z,101891.15
2019-02-27T08:29:33.868Z,101889.22
2019-02-27T08:30:37.465Z,101892.48
2019-02-27T08:31:41.033Z,101899.89
2019-02-27T08:32:44.606Z,101892.45
2019-02-27T08:33:48.188Z,101893.53
2019-02-27T08:34:51.667Z,101893.53
2019-02-27T08:35:55.255Z,101888.84
2019-02-27T08:36:58.783Z,101889.93
2019-02-27T08:38:02.959Z,101889.93
2019-02-27T08:39:06.721Z,101888.03
2019-02-27T08:40:12.387Z,101886.91
2019-02-27T08:41:16.978Z,101889.41
2019-02-27T08:42:20.500Z,101889.66
2019-02-27T08:43:24.101Z,101884.98
2019-02-27T08:44:27.559Z,101880.59
2019-02-27T08:45:31.142Z,101884.16
2019-02-27T08:46:37.095Z,101884.72
2019-02-27T08:47:40.806Z,101884.98
2019-02-27T08:48:49.911Z,101880.59
2019-02-27T08:49:50.585Z,101887.47
2019-02-27T08:50:54.166Z,101884.98
2019-02-27T08:51:57.642Z,101889.11
2019-02-27T08:53:01.132Z,101880.03
2019-02-27T08:54:04.752Z,101882.48
2019-02-27T08:55:18.600Z,101878.09
2019-02-27T08:56:16.555Z,101878.09
2019-02-27T08:57:20.191Z,101882.48
2019-02-27T08:58:23.772Z,101878.36
2019-02-27T08:59:27.475Z,101882.48
2019-02-27T09:00:32.791Z,101870.09
2019-02-27T09:01:37.875Z,101871.47
2019-02-27T09:02:41.574Z,101867.34
2019-02-27T09:03:45.037Z,101867.34
2019-02-27T09:04:48.631Z,101867.60
2019-02-27T09:05:53.789Z,101868.16
2019-02-27T09:07:02.340Z,101863.21
2019-02-27T09:08:02.714Z,101861.02
2019-02-27T09:09:07.979Z,101859.08
2019-02-27T09:10:14.182Z,101865.67
2019-02-27T09:11:19.341Z,101859.61
2019-02-27T09:12:22.828Z,101853.28
2019-02-27T09:13:26.330Z,101858.48
2019-02-27T09:14:29.891Z,101855.48
2019-02-27T09:15:33.508Z,101854.36
2019-02-27T09:16:37.063Z,101864.25
2019-02-27T09:17:40.709Z,101855.73
2019-02-27T09:18:44.295Z,101857.93
2019-02-27T09:19:47.860Z,101854.09
2019-02-27T09:20:53.376Z,101857.37
2019-02-27T09:21:56.570Z,101861.20
2019-02-27T09:23:00.151Z,101857.37
2019-02-27T09:24:03.628Z,101856.00
2019-02-27T09:25:08.773Z,101857.07
2019-02-27T09:26:12.272Z,101857.34
2019-02-27T09:27:15.750Z,101852.38
2019-02-27T09:28:19.273Z,101854.32
2019-02-27T09:29:22.756Z,101848.52
2019-02-27T09:30:29.279Z,101847.14
2019-02-27T09:31:31.801Z,101848.52
2019-02-27T09:32:35.282Z,101845.77
2019-02-27T09:33:39.239Z,101843.27
2019-02-27T09:34:42.992Z,101840.25
2019-02-27T09:35:46.485Z,101836.94
2019-02-27T09:36:50.071Z,101832.00
2019-02-27T09:37:53.710Z,101837.20
2019-02-27T09:38:57.752Z,101832.55
2019-02-27T09:40:04.799Z,101829.24
2019-02-27T09:41:06.646Z,101835.83
2019-02-27T09:42:10.165Z,101834.19
2019-02-27T09:43:13.662Z,101832.52
2019-02-27T09:44:17.297Z,101837.77
2019-02-27T09:45:32.070Z,101832.52
2019-02-27T09:46:35.579Z,101837.20
2019-02-27T09:47:39.106Z,101829.76
2019-02-27T09:48:42.605Z,101831.95
2019-02-27T09:49:46.119Z,101825.63
2019-02-27T09:50:49.659Z,101827.27
2019-02-27T09:51:56.429Z,101828.12
2019-02-27T09:53:01.086Z,101828.64
2019-02-27T09:54:03.886Z,101825.07
2019-02-27T09:55:07.525Z,101823.70
2019-02-27T09:56:11.690Z,101821.77
2019-02-27T09:57:15.291Z,101822.88
2019-02-27T09:58:18.951Z,101820.38
2019-02-27T09:59:22.443Z,101822.84
2019-02-27T10:00:33.640Z,101820.64
2019-02-27T10:01:37.196Z,101822.58
2019-02-27T10:02:43.157Z,101822.31
2019-02-27T10:03:46.080Z,101820.94
2019-02-27T10:04:49.572Z,101816.52
2019-02-27T10:05:53.239Z,101814.05
2019-02-27T10:06:56.730Z,101816.52
2019-02-27T10:08:00.271Z,101815.95
2019-02-27T10:09:05.364Z,101818.44
2019-02-27T10:10:10.425Z,101812.67
2019-02-27T10:11:18.787Z,101819.81
2019-02-27T10:12:19.436Z,101814.31
2019-02-27T10:13:22.964Z,101818.44
2019-02-27T10:14:26.454Z,101808.80
2019-02-27T10:15:30.033Z,101814.56
2019-02-27T10:16:34.830Z,101806.86
2019-02-27T10:17:41.030Z,101805.50
2019-02-27T10:18:44.155Z,101813.19
2019-02-27T10:19:47.641Z,101813.19
2019-02-27T10:20:51.130Z,101812.38
2019-02-27T10:21:54.703Z,101804.67
2019-02-27T10:22:58.325Z,101808.50
2019-02-27T10:24:04.544Z,101805.75
2019-02-27T10:25:08.635Z,101801.88
2019-02-27T10:26:12.981Z,101797.48
2019-02-27T10:27:16.478Z,101793.36
2019-02-27T10:28:19.967Z,101788.41
2019-02-27T10:29:23.481Z,101789.78
2019-02-27T10:30:27.222Z,101797.19
2019-02-27T10:31:30.786Z,101788.41
2019-02-27T10:32:36.545Z,101792.80
2019-02-27T10:33:39.573Z,101792.80
2019-02-27T10:34:43.077Z,101792.80
2019-02-27T10:35:46.889Z,101791.42
2019-02-27T10:36:50.400Z,101796.06
2019-02-27T10:37:54.462Z,101794.99
2019-02-27T10:39:01.610Z,101793.05
2019-02-27T10:40:03.616Z,101793.88
2019-02-27T10:41:07.253Z,101790.56
2019-02-27T10:42:10.728Z,101788.63
2019-02-27T10:43:14.241Z,101786.43
2019-02-27T10:44:17.749Z,101786.69
2019-02-27T10:45:21.445Z,101781.18
2019-02-27T10:46:24.969Z,101788.63
2019-02-27T10:47:28.448Z,101788.06
2019-02-27T10:48:31.932Z,101786.69
2019-02-27T10:49:35.507Z,101791.08
2019-02-27T10:50:39.022Z,101783.94
2019-02-27T10:51:43.762Z,101786.95
2019-02-27T10:52:49.936Z,101784.20
2019-02-27T10:53:53.277Z,101777.56
2019-02-27T10:54:56.873Z,101775.07
2019-02-27T10:56:00.392Z,101776.19
2019-02-27T10:57:05.921Z,101782.22
2019-02-27T10:58:12.890Z,101777.83
2019-02-27T10:59:14.527Z,101775.07
2019-02-27T11:00:25.713Z,101777.27
2019-02-27T11:01:29.353Z,101776.15
2019-02-27T11:02:32.906Z,101766.81
2019-02-27T11:03:36.512Z,101767.92
2019-02-27T11:04:40.092Z,101762.68
2019-02-27T11:05:43.756Z,101767.07
2019-02-27T11:06:47.346Z,101767.07
2019-02-27T11:07:53.033Z,101768.70
2019-02-27T11:08:56.259Z,101768.45
2019-02-27T11:09:59.835Z,101762.12
2019-02-27T11:11:03.329Z,101769.27
2019-02-27T11:12:06.873Z,101757.17
2019-02-27T11:13:10.348Z,101757.17
2019-02-27T11:14:13.845Z,101759.06
2019-02-27T11:15:19.298Z,101751.92
2019-02-27T11:16:23.040Z,101745.30
2019-02-27T11:17:26.548Z,101751.36
2019-02-27T11:18:30.194Z,101741.72
2019-02-27T11:19:34.861Z,101741.72
2019-02-27T11:20:38.602Z,101739.53
2019-02-27T11:21:42.111Z,101738.16
2019-02-27T11:22:45.735Z,101736.77
2019-02-27T11:23:49.398Z,101735.91
2019-02-27T11:24:52.879Z,101728.52
2019-02-27T11:25:56.957Z,101728.77
2019-02-27T11:27:03.415Z,101724.64
2019-02-27T11:28:06.658Z,101727.39
2019-02-27T11:29:10.200Z,101724.89
2019-02-27T11:30:19.020Z,101722.14
2019-02-27T11:31:22.646Z,101714.44
2019-02-27T11:32:26.240Z,101708.98
2019-02-27T11:33:32.679Z,101715.26
2019-02-27T11:34:35.036Z,101706.17
2019-02-27T11:35:38.611Z,101711.13
2019-02-27T11:36:42.158Z,101707.55
2019-02-27T11:37:47.529Z,101702.61
2019-02-27T11:38:50.956Z,101705.62
2019-02-27T11:39:54.421Z,101700.11
2019-02-27T11:40:57.935Z,101698.73
2019-02-27T11:42:01.413Z,101695.72
2019-02-27T11:43:06.933Z,101696.80
2019-02-27T11:44:14.053Z,101690.47
2019-02-27T11:45:17.625Z,101690.47
2019-02-27T11:46:21.209Z,101690.72
2019-02-27T11:47:24.686Z,101685.78
2019-02-27T11:48:28.208Z,101686.34
2019-02-27T11:49:31.714Z,101684.96
2019-02-27T11:50:35.360Z,101688.83
2019-02-27T11:51:38.846Z,101683.02
2019-02-27T11:52:48.830Z,101680.58
2019-02-27T11:53:47.715Z,101678.08
2019-02-27T11:54:51.195Z,101676.44
2019-02-27T11:55:54.775Z,101675.32
2019-02-27T11:56:58.284Z,101677.52
2019-02-27T11:58:05.433Z,101673.39
2019-02-27T11:59:10.295Z,101678.89
2019-02-27T12:00:31.531Z,101677.77
2019-02-27T12:01:35.157Z,101668.69
2019-02-27T12:02:38.826Z,101665.68
2019-02-27T12:03:45.696Z,101661.55
2019-02-27T12:04:47.720Z,101659.92
2019-02-27T12:05:51.374Z,101659.61
2019-02-27T12:06:54.869Z,101660.44
2019-02-27T12:07:58.722Z,101655.48
2019-02-27T12:09:02.300Z,101657.67
2019-02-27T12:10:09.625Z,101645.59
2019-02-27T12:11:14.219Z,101646.66
2019-02-27T12:12:22.522Z,101646.91
2019-02-27T12:13:23.026Z,101649.72
2019-02-27T12:14:26.542Z,101643.09
2019-02-27T12:15:30.143Z,101646.41
2019-02-27T12:16:33.631Z,101650.53
2019-02-27T12:17:37.176Z,101642.02
2019-02-27T12:18:40.716Z,101638.45
2019-02-27T12:19:45.327Z,101642.27
2019-02-27T12:20:53.223Z,101638.14
2019-02-27T12:21:54.357Z,101638.14
2019-02-27T12:22:57.939Z,101638.14
2019-02-27T12:24:01.524Z,101634.01
2019-02-27T12:25:07.030Z,101632.94
2019-02-27T12:26:10.527Z,101624.47
2019-02-27T12:27:24.489Z,101629.11
2019-02-27T12:28:19.560Z,101626.87
2019-02-27T12:29:24.092Z,101621.92
2019-02-27T12:30:30.170Z,101618.35
2019-02-27T12:31:33.743Z,101621.62
2019-02-27T12:32:37.285Z,101618.61